Time;durP1;ratioP1;P1;durP2;ratioP2;P2;SDS_P1;SDS_P2;PMS_P1;PMS_P2;Temp;Humidity;BMP_temperature;BMP_pressure;BME280_temperature;BME280_humidity;BME280_pressure;Samples;Min_cycle;Max_cycle;Signal;HPM_P1;HPM_P2
2024/03/09 00:00:18;;;;;;;20.95;17.50;;;;;;;4.79;100.00;100468.34;5130686;27;20027;-39
2024/03/09 00:02:48;;;;;;;24.05;18.50;;;;;;;4.76;100.00;100462.56;5130693;27;20029;-39
2024/03/09 00:05:14;;;;;;;21.98;17.73;;;;;;;4.83;100.00;100466.94;5129047;27;20491;-39
2024/03/09 00:07:40;;;;;;;21.83;18.05;;;;;;;4.75;100.00;100464.44;5117027;28;20111;-39
2024/03/09 00:10:06;;;;;;;24.35;18.83;;;;;;;4.77;100.00;100470.41;5117696;28;20051;-39
2024/03/09 00:12:33;;;;;;;21.05;17.80;;;;;;;4.76;100.00;100463.41;5117065;28;20406;-39
2024/03/09 00:15:01;;;;;;;21.45;19.05;;;;;;;4.69;100.00;100462.56;5116702;28;20111;-39
2024/03/09 00:17:27;;;;;;;22.48;19.33;;;;;;;4.61;100.00;100449.34;5116637;28;20019;-39
2024/03/09 00:19:52;;;;;;;25.50;18.95;;;;;;;4.64;100.00;100451.63;5116389;28;20024;-39
2024/03/09 00:22:17;;;;;;;21.33;18.20;;;;;;;4.59;100.00;100446.06;5116605;28;20099;-39
2024/03/09 00:24:45;;;;;;;21.33;18.70;;;;;;;4.62;100.00;100451.00;5116899;28;20024;-39
2024/03/09 00:27:11;;;;;;;23.83;19.88;;;;;;;4.57;100.00;100461.47;5116248;28;20023;-39
2024/03/09 00:29:36;;;;;;;24.30;19.58;;;;;;;4.56;100.00;100479.41;5116823;28;20024;-39
2024/03/09 00:32:03;;;;;;;23.15;18.48;;;;;;;4.48;100.00;100447.44;5116962;27;20439;-39
2024/03/09 00:34:29;;;;;;;25.90;19.13;;;;;;;4.55;100.00;100471.59;5116841;28;20028;-39
2024/03/09 00:36:54;;;;;;;22.50;18.67;;;;;;;4.55;100.00;100476.94;5116312;28;20474;-39
2024/03/09 00:39:19;;;;;;;22.33;17.97;;;;;;;4.50;100.00;100464.16;5116913;28;20020;-39
2024/03/09 00:41:47;;;;;;;25.37;19.07;;;;;;;4.46;100.00;100478.13;5116812;28;20023;-39
2024/03/09 00:44:13;;;;;;;23.05;18.50;;;;;;;4.45;100.00;100457.75;5117067;28;20280;-39
2024/03/09 00:46:38;;;;;;;24.48;18.50;;;;;;;4.45;100.00;100455.06;5116407;28;20024;-39
2024/03/09 00:49:03;;;;;;;21.20;17.53;;;;;;;4.48;100.00;100468.84;5116494;28;20047;-39
2024/03/09 00:51:30;;;;;;;26.53;19.07;;;;;;;4.45;100.00;100466.59;5115985;28;20408;-39
2024/03/09 00:53:56;;;;;;;23.33;18.63;;;;;;;4.42;100.00;100458.13;5115498;28;20020;-39
2024/03/09 00:56:22;;;;;;;23.20;18.17;;;;;;;4.43;100.00;100460.59;5116376;28;20465;-39
2024/03/09 00:58:48;;;;;;;24.27;19.60;;;;;;;4.37;100.00;100462.22;5115712;28;20092;-39
2024/03/09 01:01:14;;;;;;;22.23;19.20;;;;;;;4.36;100.00;100454.41;5115885;28;20198;-39
2024/03/09 01:03:39;;;;;;;21.43;18.43;;;;;;;4.31;100.00;100452.31;5116363;28;20024;-39
2024/03/09 01:06:05;;;;;;;23.30;17.87;;;;;;;4.30;100.00;100448.00;5115427;28;20107;-39
2024/03/09 01:08:31;;;;;;;24.88;19.75;;;;;;;4.23;100.00;100447.13;5115772;28;20019;-39
2024/03/09 01:10:57;;;;;;;24.48;19.17;;;;;;;4.15;100.00;100436.63;5115964;28;20031;-39
2024/03/09 01:13:22;;;;;;;;;;;;;;;4.28;100.00;100444.69;5115786;28;20027;-39
2024/03/09 01:15:51;;;;;;;23.30;18.95;;;;;;;4.20;100.00;100444.03;5115219;28;19909;-39
2024/03/09 01:18:17;;;;;;;21.73;18.08;;;;;;;4.14;100.00;100437.63;5115102;28;20030;-39
2024/03/09 01:20:43;;;;;;;24.65;20.55;;;;;;;4.08;100.00;100433.88;5115809;28;20438;-39
2024/03/09 01:23:09;;;;;;;22.02;18.73;;;;;;;4.08;100.00;100433.88;5115211;28;20047;-39
2024/03/09 01:25:35;;;;;;;23.83;20.40;;;;;;;4.03;100.00;100417.59;5115992;28;20035;-39
2024/03/09 01:28:00;;;;;;;22.60;18.85;;;;;;;4.08;100.00;100433.88;5115418;28;20447;-39
2024/03/09 01:30:26;;;;;;;24.35;20.48;;;;;;;4.07;100.00;100420.72;5116114;28;20024;-39
2024/03/09 01:32:51;;;;;;;22.97;19.27;;;;;;;4.04;100.00;100413.91;5115780;28;20355;-39
2024/03/09 01:35:17;;;;;;;21.95;18.52;;;;;;;4.03;100.00;100414.94;5115146;28;20020;-39
2024/03/09 01:37:42;;;;;;;24.53;19.33;;;;;;;4.00;100.00;100409.16;5115189;28;20034;-38
2024/03/09 01:40:10;;;;;;;23.30;19.63;;;;;;;3.99;100.00;100410.16;5115109;28;20336;-39
2024/03/09 01:42:35;;;;;;;23.25;18.70;;;;;;;3.95;100.00;100406.25;5114716;28;20375;-39
2024/03/09 01:45:04;;;;;;;23.07;19.53;;;;;;;3.86;100.00;100389.56;5114729;28;20023;-39
2024/03/09 01:47:31;;;;;;;23.98;18.70;;;;;;;3.91;100.00;100403.16;5114593;28;20760;-39
2024/03/09 01:49:57;;;;;;;22.95;18.38;;;;;;;3.83;100.00;100396.09;5114908;28;20032;-39
2024/03/09 01:52:31;;;;;;;25.10;19.75;;;;;;;3.90;100.00;100400.66;5115180;28;20023;-39
2024/03/09 01:54:57;;;;;;;22.73;19.05;;;;;;;3.77;100.00;100383.53;5114952;28;20123;-39
2024/03/09 01:57:24;;;;;;;24.35;20.15;;;;;;;3.85;100.00;100393.22;5115624;28;20106;-39
2024/03/09 01:59:55;;;;;;;23.40;19.77;;;;;;;3.80;100.00;100383.13;5115002;28;20344;-39
2024/03/09 02:02:23;;;;;;;23.75;18.83;;;;;;;3.85;100.00;100386.03;5114966;28;20312;-39
2024/03/09 02:04:49;;;;;;;24.70;19.33;;;;;;;3.82;100.00;100386.44;5115447;28;20167;-39
2024/03/09 02:07:16;;;;;;;24.63;19.50;;;;;;;3.84;100.00;100379.03;5114283;28;20047;-39
2024/03/09 02:09:43;;;;;;;23.90;19.13;;;;;;;3.79;100.00;100370.78;5114766;28;20024;-39
2024/03/09 02:12:09;;;;;;;22.08;19.10;;;;;;;3.73;100.00;100374.25;5114145;28;20024;-39
2024/03/09 02:14:36;;;;;;;24.70;19.40;;;;;;;3.75;100.00;100366.03;5114877;27;20493;-39
2024/03/09 02:17:07;;;;;;;25.83;19.88;;;;;;;3.79;100.00;100369.94;5114402;28;20032;-39
2024/03/09 02:19:38;;;;;;;26.35;19.98;;;;;;;3.74;100.00;100354.50;5114054;28;20104;-39
2024/03/09 02:22:06;;;;;;;24.73;19.52;;;;;;;3.80;100.00;100366.25;5114829;28;20366;-39
2024/03/09 02:24:38;;;;;;;24.05;19.58;;;;;;;3.82;100.00;100365.03;5114838;28;20023;-39
2024/03/09 02:27:06;;;;;;;23.85;19.08;;;;;;;3.78;100.00;100350.41;5114004;28;20034;-39
2024/03/09 02:29:31;;;;;;;37.33;22.08;;;;;;;3.76;100.00;100339.09;5114550;28;20024;-39
2024/03/09 02:31:56;;;;;;;24.27;18.50;;;;;;;3.84;100.00;100341.59;5114288;28;20015;-39
2024/03/09 02:34:22;;;;;;;26.03;19.10;;;;;;;3.63;100.00;100319.47;5114410;28;20352;-39
2024/03/09 02:36:47;;;;;;;24.52;18.95;;;;;;;3.82;100.00;100343.66;5114157;28;20081;-39
2024/03/09 02:39:13;;;;;;;24.53;18.87;;;;;;;3.80;100.00;100337.66;5114506;28;20115;-39
2024/03/09 02:41:38;;;;;;;24.13;18.83;;;;;;;3.84;100.00;100343.44;5114049;28;20043;-39
2024/03/09 02:44:04;;;;;;;27.30;18.87;;;;;;;3.78;100.00;100328.19;5114874;28;20027;-39
2024/03/09 02:46:30;;;;;;;25.40;20.02;;;;;;;3.81;100.00;100333.97;5113700;28;20026;-39
2024/03/09 02:48:55;;;;;;;21.20;17.85;;;;;;;3.85;100.00;100337.06;5114301;28;20098;-39
2024/03/09 02:51:22;;;;;;;22.90;18.90;;;;;;;3.85;100.00;100337.06;5114008;28;20126;-39
2024/03/09 02:53:51;;;;;;;21.85;18.42;;;;;;;3.85;100.00;100331.72;5113985;28;20049;-39
2024/03/09 02:56:19;;;;;;;25.10;19.10;;;;;;;3.87;100.00;100341.19;5114490;28;20032;-39
2024/03/09 02:58:45;;;;;;;24.17;19.27;;;;;;;3.83;100.00;100329.25;5114203;28;20027;-39
2024/03/09 03:01:10;;;;;;;21.63;18.63;;;;;;;3.86;100.00;100331.53;5113852;28;20076;-39
2024/03/09 03:06:12;;;;;;;23.63;18.63;;;;;;;3.77;100.00;100311.31;5114244;28;20043;-39
2024/03/09 03:08:37;;;;;;;22.23;18.92;;;;;;;3.80;100.00;100313.56;5114441;28;20024;-39
2024/03/09 03:11:03;;;;;;;21.80;18.93;;;;;;;3.78;100.00;100315.63;5113486;28;20390;-39
2024/03/09 03:13:28;;;;;;;20.52;17.67;;;;;;;3.86;100.00;100322.69;5113814;28;20061;-39
2024/03/09 03:15:54;;;;;;;23.37;18.10;;;;;;;3.88;100.00;100329.47;5112399;28;20027;-39
2024/03/09 03:18:20;;;;;;;21.58;18.10;;;;;;;3.81;100.00;100317.09;5114292;28;20264;-39
2024/03/09 03:20:45;;;;;;;24.45;17.92;;;;;;;3.85;100.00;100313.81;5114031;28;20443;-39
2024/03/09 03:23:12;;;;;;;21.97;17.07;;;;;;;3.84;100.00;100314.84;5113395;28;20051;-39
2024/03/09 03:25:38;;;;;;;23.70;17.17;;;;;;;3.85;100.00;100310.31;5113380;28;20274;-39
2024/03/09 03:28:05;;;;;;;21.50;17.23;;;;;;;3.86;100.00;100310.13;5113716;28;20034;-39
2024/03/09 03:30:33;;;;;;;24.10;17.50;;;;;;;3.85;100.00;100305.78;5113644;28;20030;-39
2024/03/09 03:33:00;;;;;;;20.73;17.17;;;;;;;3.83;100.00;100299.00;5113532;28;20019;-39
2024/03/09 03:35:25;;;;;;;20.95;17.38;;;;;;;3.84;100.00;100312.16;5114014;28;20065;-39
2024/03/09 03:37:51;;;;;;;19.98;16.92;;;;;;;3.85;100.00;100308.44;5113233;28;20374;-39
2024/03/09 03:40:17;;;;;;;22.10;17.60;;;;;;;3.81;100.00;100307.22;5114182;28;20045;-39
2024/03/09 03:42:42;;;;;;;21.98;16.85;;;;;;;3.76;100.00;100295.50;5117883;28;20023;-38
2024/03/09 03:45:11;;;;;;;20.40;16.23;;;;;;;3.84;100.00;100304.13;5117496;28;20051;-39
2024/03/09 03:47:37;;;;;;;23.13;17.88;;;;;;;3.77;100.00;100302.47;5117319;28;20015;-39
2024/03/09 03:50:03;;;;;;;22.17;17.45;;;;;;;3.79;100.00;100295.88;5117278;28;20020;-39
2024/03/09 03:52:28;;;;;;;23.25;17.42;;;;;;;3.80;100.00;100304.72;5116958;28;20022;-39
2024/03/09 03:54:55;;;;;;;20.47;17.37;;;;;;;3.78;100.00;100294.25;5117972;28;20052;-39
2024/03/09 03:57:21;;;;;;;19.60;16.25;;;;;;;3.71;100.00;100285.38;5117197;28;20103;-39
2024/03/09 03:59:46;;;;;;;;;;;;;;;3.87;100.00;100292.22;5117609;28;20015;-39
2024/03/09 04:02:12;;;;;;;21.73;16.40;;;;;;;3.80;100.00;100289.50;5116801;28;19908;-39
2024/03/09 04:04:37;;;;;;;19.85;16.80;;;;;;;3.83;100.00;100290.97;5116766;28;20532;-39
2024/03/09 04:07:04;;;;;;;19.43;16.30;;;;;;;3.82;100.00;100297.34;5116996;28;20098;-39
2024/03/09 04:09:30;;;;;;;25.13;17.88;;;;;;;3.79;100.00;100285.19;5117775;28;20148;-39
2024/03/09 04:11:56;;;;;;;;;;;;;;;3.88;100.00;100296.53;5116955;28;20132;-39
2024/03/09 04:14:26;;;;;;;20.80;16.05;;;;;;;3.82;100.00;100281.31;5116312;28;19949;-39
2024/03/09 04:16:54;;;;;;;18.60;15.68;;;;;;;3.88;100.00;100289.34;5116706;27;20023;-39
2024/03/09 04:19:20;;;;;;;20.50;16.50;;;;;;;3.90;100.00;100294.47;5116784;28;20360;-39
2024/03/09 04:21:46;;;;;;;20.27;16.77;;;;;;;3.82;100.00;100279.44;5116306;28;20024;-39
2024/03/09 04:24:11;;;;;;;17.00;14.70;;;;;;;3.92;100.00;100288.94;5116656;28;20031;-39
2024/03/09 04:26:37;;;;;;;20.08;15.55;;;;;;;3.91;100.00;100287.31;5116517;28;20024;-39
2024/03/09 04:29:02;;;;;;;20.23;15.90;;;;;;;3.91;100.00;100276.59;5116657;28;20019;-39
2024/03/09 04:31:32;;;;;;;20.58;15.55;;;;;;;3.94;100.00;100284.22;5116822;28;20026;-40
2024/03/09 04:34:01;;;;;;;19.13;15.38;;;;;;;3.91;100.00;100285.44;5116620;28;20393;-40
2024/03/09 04:36:29;;;;;;;19.80;15.43;;;;;;;3.85;100.00;100284.38;5115995;28;20023;-40
2024/03/09 04:38:54;;;;;;;16.95;14.90;;;;;;;3.85;100.00;100275.53;5116546;28;20028;-39
2024/03/09 04:41:19;;;;;;;18.97;15.33;;;;;;;3.85;100.00;100271.00;5116597;28;20046;-39
2024/03/09 04:43:45;;;;;;;16.40;14.47;;;;;;;3.76;100.00;100252.69;5116173;28;20566;-39
2024/03/09 04:46:11;;;;;;;17.73;14.73;;;;;;;3.79;100.00;100260.28;5115865;28;20041;-39
2024/03/09 04:48:36;;;;;;;20.05;15.45;;;;;;;3.85;100.00;100275.53;5115901;28;20023;-39
2024/03/09 04:51:02;;;;;;;24.77;15.83;;;;;;;3.81;100.00;100261.75;5116166;28;20024;-39
2024/03/09 04:53:27;;;;;;;18.25;14.90;;;;;;;3.83;100.00;100258.88;5116511;28;20020;-39
2024/03/09 04:55:53;;;;;;;17.07;14.13;;;;;;;3.85;100.00;100270.19;5116571;28;20092;-38
2024/03/09 04:58:19;;;;;;;18.60;14.27;;;;;;;3.89;100.00;100274.13;5116003;28;20047;-38
2024/03/09 05:00:45;;;;;;;17.30;14.05;;;;;;;3.88;100.00;100264.44;5115636;28;20019;-39
2024/03/09 05:03:20;;;;;;;17.45;14.52;;;;;;;3.87;100.00;100266.31;5116798;28;20152;-39
2024/03/09 05:05:45;;;;;;;20.17;14.23;;;;;;;3.81;100.00;100242.22;5115579;28;20030;-39
2024/03/09 05:08:10;;;;;;;18.73;15.13;;;;;;;3.87;100.00;100254.78;5115855;28;20027;-39
2024/03/09 05:10:39;;;;;;;17.07;14.10;;;;;;;3.86;100.00;100250.47;5116266;28;20335;-39
2024/03/09 05:13:06;;;;;;;15.60;13.10;;;;;;;3.85;100.00;100246.94;5115650;28;20262;-39
2024/03/09 05:15:32;;;;;;;17.92;14.65;;;;;;;3.81;100.00;100237.69;5116399;28;20072;-39
2024/03/09 05:17:59;;;;;;;17.02;14.35;;;;;;;3.91;100.00;100244.50;5115657;28;20374;-39
2024/03/09 05:20:25;;;;;;;17.00;14.25;;;;;;;3.92;100.00;100246.16;5115802;28;20035;-39
2024/03/09 05:23:03;;;;;;;16.75;14.20;;;;;;;3.93;100.00;100229.06;5115726;28;20024;-39
2024/03/09 05:25:30;;;;;;;16.05;13.60;;;;;;;3.81;100.00;100213.63;5115148;28;20027;-39
2024/03/09 05:27:57;;;;;;;17.05;13.93;;;;;;;3.96;100.00;100240.19;5115350;28;20073;-39
2024/03/09 05:30:24;;;;;;;16.67;14.32;;;;;;;3.99;100.00;100231.75;5115069;28;20030;-39
2024/03/09 05:33:06;;;;;;;15.52;13.63;;;;;;;4.00;100.00;100228.06;5115276;28;20107;-39
2024/03/09 05:35:34;;;;;;;17.23;14.40;;;;;;;4.01;100.00;100220.88;5115470;28;20035;-39
2024/03/09 05:38:00;;;;;;;16.30;13.93;;;;;;;4.02;100.00;100211.81;5115184;28;20054;-39
2024/03/09 05:40:32;;;;;;;;;;;;;;;4.11;100.00;100210.59;5115579;28;20024;-39
2024/03/09 05:43:04;;;;;;;16.73;13.07;;;;;;;4.09;100.00;100212.63;5115645;28;19903;-39
2024/03/09 05:45:30;;;;;;;18.67;13.80;;;;;;;4.08;100.00;100209.13;5115625;28;20169;-39
2024/03/09 05:47:57;;;;;;;16.27;13.85;;;;;;;4.09;100.00;100207.28;5114649;28;20099;-39
2024/03/09 05:50:30;;;;;;;19.65;13.25;;;;;;;4.06;100.00;100199.66;5114945;28;20134;-39
2024/03/09 05:53:00;;;;;;;16.70;13.35;;;;;;;4.10;100.00;100206.25;5114867;28;20023;-39
2024/03/09 05:55:26;;;;;;;15.73;13.55;;;;;;;4.12;100.00;100213.03;5115535;28;20348;-39
2024/03/09 05:57:53;;;;;;;17.45;14.48;;;;;;;4.00;100.00;100192.44;5115633;28;20050;-39
2024/03/09 06:00:24;;;;;;;17.63;13.82;;;;;;;4.07;100.00;100191.44;5114492;27;20467;-39
2024/03/09 06:02:53;;;;;;;17.70;14.50;;;;;;;4.14;100.00;100210.16;5115007;27;20405;-39
2024/03/09 06:05:19;;;;;;;16.42;13.27;;;;;;;4.13;100.00;100205.84;5114216;28;20024;-39
2024/03/09 06:07:45;;;;;;;20.90;14.23;;;;;;;4.16;100.00;100213.47;5114586;28;20030;-39
2024/03/09 06:10:16;;;;;;;17.92;14.43;;;;;;;4.15;100.00;100217.19;5114563;28;20020;-39
2024/03/09 06:12:49;;;;;;;16.85;14.18;;;;;;;4.13;100.00;100220.03;5115165;28;20358;-39
2024/03/09 06:15:16;;;;;;;17.20;13.85;;;;;;;4.12;100.00;100217.56;5114712;28;20031;-39
2024/03/09 06:17:42;;;;;;;17.05;13.55;;;;;;;4.09;100.00;100217.97;5115260;28;20034;-43
2024/03/09 06:20:08;;;;;;;15.30;13.07;;;;;;;4.03;100.00;100216.13;5115061;28;20092;-39
2024/03/09 06:22:34;;;;;;;16.73;13.32;;;;;;;3.96;100.00;100199.25;5114420;28;20023;-39
2024/03/09 06:25:00;;;;;;;17.75;13.77;;;;;;;4.10;100.00;100208.94;5115218;28;20024;-39
2024/03/09 06:27:27;;;;;;;17.98;13.75;;;;;;;4.08;100.00;100219.81;5114356;28;20024;-39
2024/03/09 06:29:56;;;;;;;14.98;12.73;;;;;;;4.04;100.00;100207.88;5113988;28;20019;-39
2024/03/09 06:32:25;;;;;;;16.73;13.73;;;;;;;4.08;100.00;100219.00;5113840;28;20023;-39
2024/03/09 06:34:52;;;;;;;15.38;13.23;;;;;;;4.06;100.00;100221.06;5114142;28;20019;-39
2024/03/09 06:37:18;;;;;;;15.38;12.50;;;;;;;4.04;100.00;100215.91;5114063;28;20088;-39
2024/03/09 06:39:43;;;;;;;16.23;13.20;;;;;;;4.07;100.00;100222.72;5114750;28;20020;-39
2024/03/09 06:42:09;;;;;;;13.88;11.55;;;;;;;4.00;100.00;100219.19;5114078;28;20371;-39
2024/03/09 06:44:36;;;;;;;13.97;12.10;;;;;;;4.08;100.00;100235.06;5113817;28;20102;-39
2024/03/09 06:47:06;;;;;;;14.43;12.05;;;;;;;4.06;100.00;100227.25;5113586;28;20341;-39
2024/03/09 06:49:35;;;;;;;17.90;13.55;;;;;;;4.08;100.00;100221.69;5114597;28;20023;-39
2024/03/09 06:52:04;;;;;;;15.30;12.45;;;;;;;4.09;100.00;100226.00;5113720;28;20030;-39
2024/03/09 06:54:30;;;;;;;14.55;12.10;;;;;;;4.09;100.00;100226.81;5114243;28;20513;-39
2024/03/09 06:56:56;;;;;;;14.80;12.93;;;;;;;4.09;100.00;100231.34;5113977;28;20107;-39
2024/03/09 06:59:21;;;;;;;15.60;13.07;;;;;;;4.02;100.00;100223.31;5114024;28;20086;-39
2024/03/09 07:01:50;;;;;;;16.20;12.15;;;;;;;4.13;100.00;100224.56;5115021;28;20419;-39
2024/03/09 07:04:18;;;;;;;15.65;11.95;;;;;;;4.10;100.00;100217.78;5114505;28;20035;-39
2024/03/09 07:06:43;;;;;;;16.25;12.32;;;;;;;4.14;100.00;100229.72;5113573;28;20624;-39
2024/03/09 07:09:11;;;;;;;16.37;12.23;;;;;;;4.13;100.00;100221.91;5113911;28;20051;-39
2024/03/09 07:11:40;;;;;;;13.80;11.57;;;;;;;4.15;100.00;100219.84;5113450;28;20028;-39
2024/03/09 07:14:05;;;;;;;15.23;12.43;;;;;;;4.28;100.00;100235.09;5114515;28;20335;-40
2024/03/09 07:16:32;;;;;;;13.77;11.70;;;;;;;4.35;100.00;100241.28;5116018;28;20114;-39
2024/03/09 07:18:57;;;;;;;17.17;12.82;;;;;;;4.32;100.00;100226.44;5117880;28;20108;-39
2024/03/09 07:21:23;;;;;;;15.00;12.63;;;;;;;4.50;100.00;100227.69;5117889;28;20102;-39
2024/03/09 07:23:50;;;;;;;12.93;11.45;;;;;;;4.56;100.00;100235.72;5117522;28;20469;-39
2024/03/09 07:26:15;;;;;;;14.52;12.55;;;;;;;4.64;100.00;100237.38;5117768;28;20041;-39
2024/03/09 07:28:43;;;;;;;17.20;12.90;;;;;;;4.73;100.00;100227.25;5118273;28;20500;-39
2024/03/09 07:31:09;;;;;;;15.48;12.25;;;;;;;4.80;100.00;100234.25;5117596;28;20296;-39
2024/03/09 07:33:35;;;;;;;13.48;12.05;;;;;;;4.87;100.00;100235.06;5118488;28;20098;-39
2024/03/09 07:36:01;;;;;;;14.23;12.10;;;;;;;4.89;100.00;100226.84;5117507;28;20435;-39
2024/03/09 07:38:27;;;;;;;14.52;11.75;;;;;;;4.96;100.00;100216.91;5117516;28;20050;-39
2024/03/09 07:40:53;;;;;;;12.63;11.00;;;;;;;5.06;100.00;100233.38;5117141;27;20024;-40
2024/03/09 07:43:20;;;;;;;13.63;10.98;;;;;;;5.11;100.00;100235.44;5117808;28;20034;-40
2024/03/09 07:45:46;;;;;;;13.45;10.77;;;;;;;5.11;100.00;100238.94;5117323;28;20028;-40
2024/03/09 07:48:16;;;;;;;14.23;11.88;;;;;;;5.12;100.00;100247.78;5117428;28;20463;-39
2024/03/09 07:50:43;;;;;;;12.27;10.98;;;;;;;5.23;100.00;100235.63;5118141;28;20171;-40
2024/03/09 07:53:08;;;;;;;13.10;11.13;;;;;;;5.32;100.00;100227.16;5116941;28;20096;-39
2024/03/09 07:55:34;;;;;;;12.85;9.80;;;;;;;5.45;100.00;100231.63;5117022;28;20089;-38
2024/03/09 07:57:59;;;;;;;12.43;10.50;;;;;;;5.53;100.00;100223.34;5117466;28;20067;-39
2024/03/09 08:00:33;;;;;;;11.88;10.63;;;;;;;5.55;100.00;100201.66;5117121;27;20023;-39
2024/03/09 08:02:59;;;;;;;12.35;10.73;;;;;;;5.67;100.00;100200.78;5117327;28;20023;-39
2024/03/09 08:05:26;;;;;;;11.93;10.48;;;;;;;5.74;100.00;100199.91;5117804;28;20031;-39
2024/03/09 08:07:52;;;;;;;12.10;9.60;;;;;;;5.81;100.00;100200.72;5117240;28;20374;-39
2024/03/09 08:10:19;;;;;;;12.25;10.02;;;;;;;6.06;100.00;100220.41;5117545;28;20055;-39
2024/03/09 08:12:44;;;;;;;;;;;;;;;6.20;100.00;100231.88;5117536;28;20028;-39
2024/03/09 08:15:12;;;;;;;11.00;9.63;;;;;;;6.31;100.00;100222.31;5117633;28;20362;-39
2024/03/09 08:17:39;;;;;;;11.07;9.50;;;;;;;6.34;100.00;100203.03;5116457;28;20102;-40
2024/03/09 08:20:08;;;;;;;10.20;9.10;;;;;;;6.45;100.00;100205.88;5117022;28;20038;-40
2024/03/09 08:22:36;;;;;;;12.98;9.35;;;;;;;6.53;100.00;100209.31;5116621;28;20027;-39
2024/03/09 08:25:07;;;;;;;12.48;9.57;;;;;;;6.62;100.00;100210.66;5117036;28;20016;-39
2024/03/09 08:27:37;;;;;;;10.30;8.70;;;;;;;6.62;100.00;100200.75;5116648;28;20087;-39
2024/03/09 08:30:04;;;;;;;12.43;10.07;;;;;;;6.78;100.00;100210.09;5117159;28;20034;-40
2024/03/09 08:32:30;;;;;;;10.77;9.40;;;;;;;6.79;100.00;100190.28;5116424;28;20051;-40
2024/03/09 08:34:55;;;;;;;12.15;9.45;;;;;;;6.83;100.00;100188.78;5116280;28;20072;-39
2024/03/09 08:37:20;;;;;;;10.80;9.17;;;;;;;6.99;100.00;100197.31;5116194;28;20027;-39
2024/03/09 08:39:46;;;;;;;11.90;9.50;;;;;;;7.04;100.00;100184.00;5116954;28;20410;-39
2024/03/09 08:42:12;;;;;;;10.57;8.87;;;;;;;7.15;100.00;100183.25;5116291;28;20617;-39
2024/03/09 08:44:39;;;;;;;11.90;9.10;;;;;;;7.23;100.00;100181.09;5116820;28;20015;-39
2024/03/09 08:47:04;;;;;;;11.02;9.13;;;;;;;7.28;100.00;100180.41;5116138;28;20034;-39
2024/03/09 08:49:31;;;;;;;10.93;8.82;;;;;;;7.34;100.00;100176.81;5116706;28;20019;-39
2024/03/09 08:51:57;;;;;;;10.07;9.00;;;;;;;7.38;100.00;100171.81;5115769;28;20452;-39
2024/03/09 08:54:23;;;;;;;;;;;;;;;7.52;100.00;100180.53;5116368;28;20044;-40
2024/03/09 08:56:52;;;;;;;9.80;8.80;;;;;;;7.52;100.00;100161.72;5116828;28;19907;-40
2024/03/09 08:59:17;;;;;;;9.73;8.65;;;;;;;7.69;100.00;100176.16;5116024;28;20027;-39
2024/03/09 09:01:43;;;;;;;9.65;8.20;;;;;;;7.80;100.00;100169.16;5115916;28;20015;-39
2024/03/09 09:04:09;;;;;;;10.35;8.88;;;;;;;7.85;100.00;100162.03;5116163;28;20024;-39
2024/03/09 09:06:34;;;;;;;10.90;9.40;;;;;;;7.98;100.00;100166.44;5115531;28;20031;-39
2024/03/09 09:09:00;;;;;;;11.90;8.57;;;;;;;8.03;100.00;100161.16;5116060;28;20258;-39
2024/03/09 09:11:28;;;;;;;10.30;8.75;;;;;;;8.16;100.00;100176.31;5115334;28;20054;-39
2024/03/09 09:13:53;;;;;;;9.38;8.38;;;;;;;8.17;100.00;100159.09;5116106;28;20030;-40
2024/03/09 09:16:20;;;;;;;12.50;8.65;;;;;;;8.32;98.83;100175.63;5115589;28;20023;-40
2024/03/09 09:18:45;;;;;;;13.02;9.02;;;;;;;8.24;98.55;100157.91;5116427;28;20405;-40
2024/03/09 09:21:10;;;;;;;9.10;8.20;;;;;;;8.37;99.66;100159.63;5115549;28;20024;-40
2024/03/09 09:23:36;;;;;;;11.83;8.80;;;;;;;8.51;98.19;100165.59;5115542;28;20024;-39
2024/03/09 09:26:01;;;;;;;11.47;8.93;;;;;;;8.58;98.87;100152.00;5116167;28;20273;-39
2024/03/09 09:28:28;;;;;;;11.63;9.63;;;;;;;8.71;97.77;100168.75;5115204;28;20098;-39
2024/03/09 09:30:54;;;;;;;9.73;8.73;;;;;;;8.71;97.23;100162.56;5116077;28;20028;-39
2024/03/09 09:33:19;;;;;;;10.05;8.98;;;;;;;8.80;96.46;100163.84;5115786;28;20027;-39
2024/03/09 09:35:46;;;;;;;10.45;9.10;;;;;;;8.72;96.68;100151.53;5114792;28;20020;-39
2024/03/09 09:38:17;;;;;;;9.60;8.60;;;;;;;8.80;97.13;100163.03;5114747;28;20156;-39
2024/03/09 09:40:57;;;;;;;10.60;9.13;;;;;;;8.83;98.43;100149.88;5115526;28;20022;-39
2024/03/09 09:43:26;;;;;;;10.25;8.98;;;;;;;8.74;95.35;100140.53;5115403;28;20064;-39
2024/03/09 09:45:51;;;;;;;9.80;8.65;;;;;;;8.76;96.41;100146.50;5115587;28;20419;-39
2024/03/09 09:48:19;;;;;;;10.40;8.85;;;;;;;8.80;97.29;100138.75;5114932;27;20036;-39
2024/03/09 09:50:46;;;;;;;10.27;9.13;;;;;;;8.86;99.46;100146.72;5115301;28;20027;-39
2024/03/09 09:53:14;;;;;;;10.55;8.57;;;;;;;8.93;98.22;100141.19;5114574;28;20031;-39
2024/03/09 09:55:40;;;;;;;11.13;9.20;;;;;;;8.95;97.29;100144.47;5114788;28;20046;-39
2024/03/09 09:58:06;;;;;;;11.15;9.02;;;;;;;8.99;97.77;100134.88;5115698;28;20023;-39
2024/03/09 10:00:31;;;;;;;10.68;9.13;;;;;;;9.12;97.81;100126.47;5114875;28;20041;-39
2024/03/09 10:02:58;;;;;;;11.07;8.77;;;;;;;9.22;96.35;100121.31;5114436;28;20073;-39
2024/03/09 10:05:28;;;;;;;12.10;10.10;;;;;;;9.23;95.80;100120.25;5114596;28;20177;-39
2024/03/09 10:08:04;;;;;;;10.90;9.15;;;;;;;9.24;95.10;100110.28;5114482;28;20511;-39
2024/03/09 10:10:41;;;;;;;9.70;8.70;;;;;;;9.31;95.04;100124.44;5114819;28;20024;-39
2024/03/09 10:13:10;;;;;;;;;;;;;;;9.35;94.89;100120.19;5115319;28;20024;-39
2024/03/09 10:15:38;;;;;;;10.15;8.95;;;;;;;9.23;94.74;100116.75;5115176;27;19961;-39
2024/03/09 10:18:07;;;;;;;9.05;8.15;;;;;;;9.18;93.44;100111.25;5114306;28;20113;-39
2024/03/09 10:20:35;;;;;;;9.85;8.85;;;;;;;9.21;95.80;100121.53;5114891;28;20051;-39
2024/03/09 10:23:04;;;;;;;10.15;9.05;;;;;;;9.22;95.51;100124.03;5114333;28;20024;-39
2024/03/09 10:25:35;;;;;;;10.20;8.75;;;;;;;9.22;94.47;100106.97;5114660;28;20024;-40
2024/03/09 10:28:05;;;;;;;10.02;9.00;;;;;;;9.32;95.48;100104.50;5114495;28;20102;-39
2024/03/09 10:30:31;;;;;;;11.20;9.77;;;;;;;9.42;94.36;100102.00;5114741;28;20016;-39
2024/03/09 10:32:58;;;;;;;10.55;9.45;;;;;;;9.43;95.07;100100.13;5114081;28;20102;-39
2024/03/09 10:35:24;;;;;;;10.38;9.35;;;;;;;9.46;94.27;100108.53;5114074;28;20455;-39
2024/03/09 10:37:55;;;;;;;11.40;9.60;;;;;;;9.54;94.18;100107.34;5114390;28;20028;-39
2024/03/09 10:40:22;;;;;;;10.95;9.80;;;;;;;9.46;93.65;100092.34;5114347;28;20030;-39
2024/03/09 10:42:49;;;;;;;12.95;9.63;;;;;;;9.63;94.21;100114.00;5114087;28;20019;-39
2024/03/09 10:45:20;;;;;;;11.23;9.55;;;;;;;9.65;94.67;100098.34;5113749;28;20019;-39
2024/03/09 10:47:53;;;;;;;10.00;8.95;;;;;;;9.75;93.13;100111.22;5113522;28;20107;-39
2024/03/09 10:50:25;;;;;;;11.20;9.13;;;;;;;9.81;94.38;100112.97;5113584;28;20023;-39
2024/03/09 10:53:04;;;;;;;10.30;9.18;;;;;;;9.86;93.19;100112.19;5113452;28;20038;-39
2024/03/09 10:55:48;;;;;;;11.20;9.45;;;;;;;9.94;93.93;100106.41;5114131;28;20358;-39
2024/03/09 10:58:15;;;;;;;11.10;8.98;;;;;;;10.05;92.41;100092.84;5114680;28;20480;-40
2024/03/09 11:00:49;;;;;;;11.45;9.32;;;;;;;10.38;89.96;100098.50;5114382;28;20030;-40
2024/03/09 11:03:18;;;;;;;10.65;9.55;;;;;;;10.60;87.69;100080.44;5113758;28;20135;-40
2024/03/09 11:05:45;;;;;;;11.88;8.77;;;;;;;10.80;91.10;100091.53;5114051;28;20024;-40
2024/03/09 11:08:10;;;;;;;16.27;9.48;;;;;;;10.77;87.40;100083.91;5113721;28;20401;-40
2024/03/09 11:10:41;;;;;;;11.65;8.85;;;;;;;10.80;89.99;100085.31;5114263;28;20081;-40
2024/03/09 11:13:10;;;;;;;13.20;9.43;;;;;;;10.77;89.50;100081.19;5113716;28;20047;-40
2024/03/09 11:15:39;;;;;;;11.15;8.65;;;;;;;10.78;89.62;100084.72;5113959;28;20023;-40